Time,TemperatureF,DewpointF,PressureIn,WindDirection,WindDirectionDegrees,WindSpeedMPH,WindSpeedGustMPH,Humidity,HourlyPrecipIn,Conditions,Clouds,dailyrainin,SoftwareType,DateUTC
2013-11-08 00:04:00,16.2,14.3,29.95,NNE,22,0.0,-999.0,92,-99.99,,,0.00,Acu-Link.com,2013-11-08 07:04:00,
2013-11-08 00:20:00,15.1,13.7,29.94,East,90,0.0,-999.0,94,-99.99,,,0.00,Acu-Link.com,2013-11-08 07:20:00,
2013-11-08 00:35:00,14.9,14.4,29.94,NE,45,0.0,-999.0,98,-99.99,,,0.00,Acu-Link.com,2013-11-08 07:35:00,
2013-11-08 00:50:00,14.7,14.2,29.94,NE,45,0.0,-999.0,98,-99.99,,,0.00,Acu-Link.com,2013-11-08 07:50:00,
2013-11-08 09:02:00,29.3,22.7,29.95,SSE,157,3.2,-999.0,76,-99.99,,,0.00,Acu-Link.com,2013-11-08 16:02:00,
2013-11-08 09:17:00,32.0,23.3,29.95,East,90,0.0,-999.0,70,-99.99,,,0.00,Acu-Link.com,2013-11-08 16:17:00,
2013-11-08 09:32:00,34.5,24.7,29.95,SE,135,4.7,-999.0,67,-99.99,,,0.00,Acu-Link.com,2013-11-08 16:32:00,
2013-11-08 09:48:00,36.3,25.3,29.92,SSW,202,2.7,-999.0,64,-99.99,,,0.00,Acu-Link.com,2013-11-08 16:48:00,
2013-11-08 10:03:00,38.1,26.3,29.91,West,270,2.2,-999.0,62,-99.99,,,0.00,Acu-Link.com,2013-11-08 17:03:00,
2013-11-08 10:19:00,39.9,25.5,29.90,SSW,202,2.7,-999.0,56,-99.99,,,0.00,Acu-Link.com,2013-11-08 17:19:00,
2013-11-08 10:34:00,41.4,26.0,29.89,NW,315,2.7,-999.0,54,-99.99,,,0.00,Acu-Link.com,2013-11-08 17:34:00,
2013-11-08 10:49:00,43.5,27.5,29.88,SW,225,4.7,-999.0,53,-99.99,,,0.00,Acu-Link.com,2013-11-08 17:49:00,
2013-11-08 11:05:00,43.7,26.8,29.87,West,270,2.2,-999.0,51,-99.99,,,0.00,Acu-Link.com,2013-11-08 18:05:00,
2013-11-08 11:20:00,46.0,27.9,29.86,NE,45,4.2,-999.0,49,-99.99,,,0.00,Acu-Link.com,2013-11-08 18:20:00,
2013-11-08 11:35:00,48.2,27.3,29.84,SSW,202,2.7,-999.0,44,-99.99,,,0.00,Acu-Link.com,2013-11-08 18:35:00,
2013-11-08 11:50:00,49.6,28.0,29.83,SW,225,1.7,-999.0,43,-99.99,,,0.00,Acu-Link.com,2013-11-08 18:50:00,
2013-11-08 12:05:00,51.6,29.3,29.82,NNW,337,3.2,-999.0,42,-99.99,,,0.00,Acu-Link.com,2013-11-08 19:05:00,
2013-11-08 12:20:00,52.9,29.2,29.80,NNW,337,3.7,-999.0,40,-99.99,,,0.00,Acu-Link.com,2013-11-08 19:20:00,
2013-11-08 12:35:00,55.0,28.5,29.79,SSW,202,3.7,-999.0,36,-99.99,,,0.00,Acu-Link.com,2013-11-08 19:35:00,
2013-11-08 12:51:00,57.7,28.8,29.77,SW,225,2.7,-999.0,33,-99.99,,,0.00,Acu-Link.com,2013-11-08 19:51:00,
2013-11-08 13:06:00,57.4,27.8,29.77,West,270,2.7,-999.0,32,-99.99,,,0.00,Acu-Link.com,2013-11-08 20:06:00,
2013-11-08 13:21:00,59.4,23.6,29.76,SSE,157,9.4,-999.0,25,-99.99,,,0.00,Acu-Link.com,2013-11-08 20:21:00,
2013-11-08 13:37:00,59.9,24.0,29.75,NW,315,4.7,-999.0,25,-99.99,,,0.00,Acu-Link.com,2013-11-08 20:37:00,
2013-11-08 13:52:00,59.5,24.6,29.76,South,180,5.3,-999.0,26,-99.99,,,0.00,Acu-Link.com,2013-11-08 20:52:00,
2013-11-08 14:07:00,59.4,23.6,29.75,West,270,3.7,-999.0,25,-99.99,,,0.00,Acu-Link.com,2013-11-08 21:07:00,
2013-11-08 14:22:00,58.1,23.4,29.75,West,270,6.8,-999.0,26,-99.99,,,0.00,Acu-Link.com,2013-11-08 21:22:00,
2013-11-08 14:37:00,56.8,22.3,29.74,SSE,157,10.4,-999.0,26,-99.99,,,0.00,Acu-Link.com,2013-11-08 21:37:00,
2013-11-08 14:52:00,55.6,22.2,29.75,SW,225,6.8,-999.0,27,-99.99,,,0.00,Acu-Link.com,2013-11-08 21:52:00,
2013-11-08 15:07:00,54.5,23.7,29.75,SW,225,3.2,-999.0,30,-99.99,,,0.00,Acu-Link.com,2013-11-08 22:07:00,
2013-11-08 15:22:00,55.6,24.7,29.73,SW,225,2.7,-999.0,30,-99.99,,,0.00,Acu-Link.com,2013-11-08 22:22:00,
2013-11-08 15:37:00,55.0,24.9,29.73,SSW,202,4.2,-999.0,31,-99.99,,,0.00,Acu-Link.com,2013-11-08 22:37:00,
2013-11-08 15:53:00,54.9,24.8,29.75,WSW,247,4.2,-999.0,31,-99.99,,,0.00,Acu-Link.com,2013-11-08 22:53:00,
2013-11-08 16:08:00,53.8,23.9,29.74,South,180,3.2,-999.0,31,-99.99,,,0.00,Acu-Link.com,2013-11-08 23:08:00,
2013-11-08 16:23:00,53.4,23.5,29.75,SSW,202,3.7,-999.0,31,-99.99,,,0.00,Acu-Link.com,2013-11-08 23:23:00,
2013-11-08 16:38:00,51.8,23.6,29.75,WSW,247,4.2,-999.0,33,-99.99,,,0.00,Acu-Link.com,2013-11-08 23:38:00,
2013-11-08 16:53:00,50.4,23.8,29.76,SSW,202,7.3,-999.0,35,-99.99,,,0.00,Acu-Link.com,2013-11-08 23:53:00,
2013-11-08 17:08:00,48.9,23.1,29.77,SSW,202,5.8,-999.0,36,-99.99,,,0.00,Acu-Link.com,2013-11-09 00:08:00,
2013-11-08 17:23:00,47.3,23.0,29.79,WSW,247,3.2,-999.0,38,-99.99,,,0.00,Acu-Link.com,2013-11-09 00:23:00,
2013-11-08 17:38:00,46.6,23.0,29.78,SSW,202,2.2,-999.0,39,-99.99,,,0.00,Acu-Link.com,2013-11-09 00:38:00,
2013-11-08 17:54:00,44.8,22.6,29.78,WSW,247,1.1,-999.0,41,-99.99,,,0.00,Acu-Link.com,2013-11-09 00:54:00,
2013-11-08 18:09:00,41.2,22.5,29.79,WSW,247,2.2,-999.0,47,-99.99,,,0.00,Acu-Link.com,2013-11-09 01:09:00,
2013-11-08 19:28:00,33.6,19.2,29.82,NNW,337,2.2,-999.0,55,-99.99,,,0.00,Acu-Link.com,2013-11-09 02:28:00,
2013-11-08 19:44:00,31.8,19.5,29.83,NNE,22,2.7,-999.0,60,-99.99,,,0.00,Acu-Link.com,2013-11-09 02:44:00,
2013-11-08 19:59:00,31.1,18.5,29.84,West,270,0.0,-999.0,59,-99.99,,,0.00,Acu-Link.com,2013-11-09 02:59:00,
2013-11-08 20:14:00,28.4,18.5,29.83,ENE,67,0.0,-999.0,66,-99.99,,,0.00,Acu-Link.com,2013-11-09 03:14:00,
2013-11-08 20:29:00,26.4,17.0,29.85,ESE,112,0.0,-999.0,67,-99.99,,,0.00,Acu-Link.com,2013-11-09 03:29:00,
2013-11-08 20:44:00,25.5,16.8,29.84,SSE,157,0.0,-999.0,69,-99.99,,,0.00,Acu-Link.com,2013-11-09 03:44:00,
2013-11-08 20:59:00,23.9,16.5,29.85,SW,225,0.0,-999.0,73,-99.99,,,0.00,Acu-Link.com,2013-11-09 03:59:00,
2013-11-08 21:14:00,23.5,17.1,29.87,ESE,112,0.0,-999.0,76,-99.99,,,0.00,Acu-Link.com,2013-11-09 04:14:00,
2013-11-08 21:29:00,22.1,17.5,29.87,NE,45,0.0,-999.0,82,-99.99,,,0.00,Acu-Link.com,2013-11-09 04:29:00,
2013-11-08 21:45:00,21.2,16.3,29.87,NNW,337,2.7,-999.0,81,-99.99,,,0.00,Acu-Link.com,2013-11-09 04:45:00,
2013-11-08 22:00:00,20.7,15.8,29.89,SE,135,0.0,-999.0,81,-99.99,,,0.00,Acu-Link.com,2013-11-09 05:00:00,
2013-11-08 22:15:00,20.1,15.5,29.90,NNE,22,2.2,-999.0,82,-99.99,,,0.00,Acu-Link.com,2013-11-09 05:15:00,
2013-11-08 22:30:00,20.5,15.0,29.91,ENE,67,1.7,-999.0,79,-99.99,,,0.00,Acu-Link.com,2013-11-09 05:30:00,
2013-11-08 22:45:00,19.4,14.5,29.90,NE,45,1.7,-999.0,81,-99.99,,,0.00,Acu-Link.com,2013-11-09 05:45:00,
2013-11-08 23:00:00,18.1,13.8,29.91,ESE,112,0.0,-999.0,83,-99.99,,,0.00,Acu-Link.com,2013-11-09 06:00:00,
2013-11-08 23:16:00,18.0,13.5,29.92,NNE,22,0.0,-999.0,82,-99.99,,,0.00,Acu-Link.com,2013-11-09 06:16:00,
2013-11-08 23:31:00,18.0,13.7,29.93,SSW,202,0.0,-999.0,83,-99.99,,,0.00,Acu-Link.com,2013-11-09 06:31:00,
2013-11-08 23:46:00,18.1,14.6,29.91,North,0,1.7,-999.0,86,-99.99,,,0.00,Acu-Link.com,2013-11-09 06:46:00,